Time;durP1;ratioP1;P1;durP2;ratioP2;P2;SDS_P1;SDS_P2;PMS_P1;PMS_P2;Temp;Humidity;BMP_temperature;BMP_pressure;BME280_temperature;BME280_humidity;BME280_pressure;Samples;Min_cycle;Max_cycle;Signal;HPM_P1;HPM_P2
2022/04/29 00:00:25;;;;;;;27.77;16.23;;;9.50;99.90;;;;;;5048185;28;20276;-70
2022/04/29 00:02:53;;;;;;;24.90;16.37;;;9.50;99.90;;;;;;5038102;28;20190;-70
2022/04/29 00:05:22;;;;;;;29.13;16.63;;;9.50;99.90;;;;;;5045248;28;20215;-70
2022/04/29 00:07:52;;;;;;;28.07;16.60;;;9.50;99.90;;;;;;5033856;28;20497;-70
2022/04/29 00:10:20;;;;;;;25.03;16.53;;;9.50;99.90;;;;;;5045532;28;20205;-70
2022/04/29 00:12:50;;;;;;;28.40;16.43;;;9.50;99.90;;;;;;5032906;28;20285;-69
2022/04/29 00:15:19;;;;;;;30.03;17.43;;;9.50;99.90;;;;;;5048367;28;20203;-70
2022/04/29 00:17:48;;;;;;;26.60;16.53;;;9.40;99.90;;;;;;5043262;28;20198;-70
2022/04/29 00:20:16;;;;;;;29.83;16.40;;;9.40;99.90;;;;;;5045212;28;20196;-70
2022/04/29 00:22:45;;;;;;;30.13;16.83;;;9.40;99.90;;;;;;5042009;28;20192;-70
2022/04/29 00:25:13;;;;;;;26.87;16.93;;;9.40;99.90;;;;;;5042155;28;20201;-70
2022/04/29 00:27:41;;;;;;;25.07;16.63;;;9.40;99.90;;;;;;5042476;28;20205;-70
2022/04/29 00:30:13;;;;;;;29.50;17.33;;;9.40;99.90;;;;;;5042006;28;20196;-70
2022/04/29 00:32:42;;;;;;;31.77;16.30;;;9.40;99.90;;;;;;5042926;28;20192;-70
2022/04/29 00:35:11;;;;;;;27.80;16.43;;;9.40;99.90;;;;;;5042654;28;20240;-70
2022/04/29 00:37:53;;;;;;;27.70;16.23;;;9.40;99.90;;;;;;5044761;28;20677;-70
2022/04/29 00:40:25;;;;;;;26.63;15.87;;;9.30;99.90;;;;;;5044578;28;20197;-70
2022/04/29 00:42:54;;;;;;;27.07;16.30;;;9.30;99.90;;;;;;5045052;28;20189;-69
2022/04/29 00:45:25;;;;;;;29.43;17.17;;;9.30;99.90;;;;;;5040702;28;20197;-70
2022/04/29 00:47:54;;;;;;;30.40;16.87;;;9.30;99.90;;;;;;5046848;28;20667;-70
2022/04/29 00:50:28;;;;;;;30.33;17.03;;;9.30;99.90;;;;;;5040512;28;20830;-70
2022/04/29 00:52:59;;;;;;;29.33;16.53;;;9.30;99.90;;;;;;5040482;28;20201;-70
2022/04/29 00:55:28;;;;;;;22.73;15.67;;;9.30;99.90;;;;;;5039590;28;20204;-70
2022/04/29 00:58:07;;;;;;;30.97;16.63;;;9.30;99.90;;;;;;5039927;28;20219;-70
2022/04/29 01:00:38;;;;;;;23.10;16.70;;;9.30;99.90;;;;;;5045265;28;20189;-70
2022/04/29 01:03:11;;;;;;;28.20;16.13;;;9.30;99.90;;;;;;5042635;28;20204;-71
2022/04/29 01:05:40;;;;;;;26.23;16.13;;;9.30;99.90;;;;;;5040521;28;20192;-70
2022/04/29 01:08:10;;;;;;;27.30;17.03;;;9.30;99.90;;;;;;5041918;28;20862;-70
2022/04/29 01:10:38;;;;;;;28.27;15.93;;;9.30;99.90;;;;;;5040203;28;20216;-70
2022/04/29 01:13:09;;;;;;;26.50;16.63;;;9.30;99.90;;;;;;5038084;28;20202;-70
2022/04/29 01:15:39;;;;;;;26.70;16.80;;;9.30;99.90;;;;;;5044912;28;20205;-70
2022/04/29 01:18:09;;;;;;;28.40;17.17;;;9.30;99.90;;;;;;5043458;28;20701;-70
2022/04/29 01:20:39;;;;;;;30.57;16.83;;;9.30;99.90;;;;;;5044086;28;20297;-70
2022/04/29 01:23:10;;;;;;;28.83;17.07;;;9.20;99.90;;;;;;5038579;28;20582;-70
2022/04/29 01:25:40;;;;;;;32.30;16.63;;;9.20;99.90;;;;;;5037535;28;20201;-70
2022/04/29 01:28:08;;;;;;;26.13;16.83;;;9.20;99.90;;;;;;5048485;28;20198;-70
2022/04/29 01:30:38;;;;;;;30.40;17.27;;;9.20;99.90;;;;;;5031378;28;20200;-70
2022/04/29 01:33:08;;;;;;;27.87;17.27;;;9.20;99.90;;;;;;5039306;28;20219;-70
2022/04/29 01:35:36;;;;;;;26.33;16.93;;;9.20;99.90;;;;;;5042008;28;20219;-70
2022/04/29 01:38:04;;;;;;;30.90;18.20;;;9.20;99.90;;;;;;5039248;28;20193;-70
2022/04/29 01:40:34;;;;;;;31.43;17.87;;;9.10;99.90;;;;;;5040677;28;20648;-70
2022/04/29 01:43:03;;;;;;;34.43;17.70;;;9.10;99.90;;;;;;5041445;28;20546;-70
2022/04/29 01:45:32;;;;;;;30.50;17.43;;;9.10;99.90;;;;;;5041376;28;20224;-70
2022/04/29 01:48:00;;;;;;;27.50;17.77;;;9.10;99.90;;;;;;5039823;28;20215;-70
2022/04/29 01:50:28;;;;;;;28.40;17.13;;;9.10;99.90;;;;;;5038286;28;20193;-70
2022/04/29 01:52:57;;;;;;;26.87;17.47;;;9.10;99.90;;;;;;5038555;28;20388;-70
2022/04/29 01:55:25;;;;;;;27.33;18.17;;;9.10;99.90;;;;;;5044653;28;20213;-70
2022/04/29 01:57:56;;;;;;;27.50;17.53;;;9.10;99.90;;;;;;5039988;28;20662;-70
2022/04/29 02:00:27;;;;;;;32.20;17.67;;;9.10;99.90;;;;;;5041782;28;20268;-70
2022/04/29 02:02:56;;;;;;;28.80;17.47;;;9.10;99.90;;;;;;5040873;28;20746;-70
2022/04/29 02:05:25;;;;;;;28.60;18.40;;;9.10;99.90;;;;;;5034611;28;20216;-70
2022/04/29 02:07:53;;;;;;;30.67;19.27;;;9.10;99.90;;;;;;5037738;28;20604;-70
2022/04/29 02:10:22;;;;;;;29.13;17.80;;;9.10;99.90;;;;;;5046225;28;20777;-70
2022/04/29 02:12:50;;;;;;;30.33;19.00;;;9.10;99.90;;;;;;5043494;28;20288;-70
2022/04/29 02:15:21;;;;;;;28.53;18.17;;;9.10;99.90;;;;;;5041297;28;20296;-70
2022/04/29 02:17:49;;;;;;;35.67;18.70;;;9.10;99.90;;;;;;5039414;28;20189;-69
2022/04/29 02:20:21;;;;;;;32.43;19.20;;;9.20;99.90;;;;;;5047610;28;20209;-70
2022/04/29 02:22:49;;;;;;;26.60;17.97;;;9.20;99.90;;;;;;5045917;28;20200;-70
2022/04/29 02:25:17;;;;;;;29.93;17.60;;;9.10;99.90;;;;;;5046713;28;20283;-70
2022/04/29 02:27:46;;;;;;;35.27;18.63;;;9.10;99.90;;;;;;5042099;28;20220;-70
2022/04/29 02:30:17;;;;;;;27.13;17.83;;;9.10;99.90;;;;;;5048522;28;20200;-69
2022/04/29 02:32:47;;;;;;;28.87;18.57;;;9.10;99.90;;;;;;5038265;28;20452;-70
2022/04/29 02:35:16;;;;;;;25.57;18.27;;;9.10;99.90;;;;;;5045195;28;20228;-70
2022/04/29 02:37:44;;;;;;;28.67;18.50;;;9.10;99.90;;;;;;5046847;28;20197;-70
2022/04/29 02:40:14;;;;;;;31.63;18.57;;;9.10;99.90;;;;;;5047644;28;20199;-70
2022/04/29 02:42:42;;;;;;;29.40;18.40;;;9.10;99.90;;;;;;5039540;28;20268;-70
2022/04/29 02:45:11;;;;;;;30.30;17.63;;;9.00;99.90;;;;;;5048385;28;20212;-70
2022/04/29 02:47:39;;;;;;;30.30;17.97;;;9.00;99.90;;;;;;5050091;28;20205;-70
2022/04/29 02:50:10;;;;;;;31.27;17.97;;;9.00;99.90;;;;;;5042661;28;20185;-70
2022/04/29 02:52:38;;;;;;;35.53;17.97;;;9.00;99.90;;;;;;5043657;28;20682;-70
2022/04/29 02:55:08;;;;;;;31.50;18.73;;;9.00;99.90;;;;;;5048077;28;20197;-70
2022/04/29 02:57:37;;;;;;;31.63;19.03;;;8.90;99.90;;;;;;5042578;28;20185;-70
2022/04/29 03:00:06;;;;;;;35.53;18.53;;;8.90;99.90;;;;;;5046732;28;20228;-70
2022/04/29 03:02:34;;;;;;;31.93;18.33;;;8.90;99.90;;;;;;5046033;28;20354;-70
2022/04/29 03:05:05;;;;;;;25.67;18.57;;;8.90;99.90;;;;;;5047277;28;20196;-70
2022/04/29 03:07:35;;;;;;;34.50;18.27;;;8.90;99.90;;;;;;5048152;28;20212;-70
2022/04/29 03:10:04;;;;;;;29.07;17.27;;;8.80;99.90;;;;;;5040129;28;20520;-70
2022/04/29 03:12:33;;;;;;;30.87;19.03;;;8.80;99.90;;;;;;5048258;28;20197;-70
2022/04/29 03:20:29;;;;;;;28.63;17.47;;;8.80;99.90;;;;;;5045141;28;20207;-70
2022/04/29 03:22:59;;;;;;;30.13;17.90;;;8.70;99.90;;;;;;5025476;28;20198;-70
2022/04/29 03:25:27;;;;;;;28.00;18.57;;;8.70;99.90;;;;;;5039480;28;20275;-70
2022/04/29 03:27:56;;;;;;;30.10;18.70;;;8.70;99.90;;;;;;5046619;28;20213;-70
2022/04/29 03:30:25;;;;;;;29.97;17.87;;;8.70;99.90;;;;;;5044765;28;20223;-70
2022/04/29 03:32:54;;;;;;;33.10;17.90;;;8.60;99.90;;;;;;5039081;28;20555;-70
2022/04/29 03:35:23;;;;;;;27.70;18.37;;;8.60;99.90;;;;;;5048400;28;20313;-70
2022/04/29 03:37:53;;;;;;;27.83;18.80;;;8.60;99.90;;;;;;5048225;28;20342;-70
2022/04/29 03:40:25;;;;;;;34.03;17.80;;;8.50;99.90;;;;;;5042793;28;20208;-70
2022/04/29 03:42:55;;;;;;;33.27;18.50;;;8.50;99.90;;;;;;5048162;28;20204;-70
2022/04/29 03:45:25;;;;;;;34.23;19.50;;;8.40;99.90;;;;;;5044325;28;20292;-70
2022/04/29 03:47:54;;;;;;;29.50;18.73;;;8.40;99.90;;;;;;5047144;28;20296;-70
2022/04/29 03:50:23;;;;;;;33.17;18.60;;;8.40;99.90;;;;;;5043997;28;20276;-70
2022/04/29 03:52:53;;;;;;;28.60;18.43;;;8.30;99.90;;;;;;5046303;28;20209;-70
2022/04/29 03:55:25;;;;;;;32.93;18.60;;;8.30;99.90;;;;;;5047581;28;20199;-70
2022/04/29 03:57:54;;;;;;;32.50;18.07;;;8.30;99.90;;;;;;5042336;28;20283;-70
2022/04/29 04:00:23;;;;;;;30.37;17.67;;;8.20;99.90;;;;;;5043387;28;20207;-70
2022/04/29 04:03:29;;;;;;;36.53;19.30;;;8.20;99.90;;;;;;5042753;28;20204;-70
2022/04/29 04:06:53;;;;;;;32.47;18.87;;;8.20;99.90;;;;;;5045190;28;20204;-70
2022/04/29 04:09:23;;;;;;;30.17;19.00;;;8.20;99.90;;;;;;5044651;28;20665;-70
2022/04/29 04:11:52;;;;;;;30.40;19.57;;;8.10;99.90;;;;;;5042286;28;20591;-69
2022/04/29 04:14:21;;;;;;;30.27;18.43;;;8.10;99.90;;;;;;5045380;28;20661;-70
2022/04/29 04:16:49;;;;;;;33.97;18.93;;;8.10;99.90;;;;;;5048300;28;20667;-69
2022/04/29 04:19:18;;;;;;;28.83;17.87;;;8.00;99.90;;;;;;5044418;28;20197;-70
2022/04/29 04:21:46;;;;;;;34.37;19.23;;;8.00;99.90;;;;;;5046272;28;20204;-69
2022/04/29 04:24:14;;;;;;;29.07;18.47;;;8.00;99.90;;;;;;5043601;28;20276;-70
2022/04/29 04:26:43;;;;;;;33.73;19.17;;;8.00;99.90;;;;;;5039980;28;20184;-70
2022/04/29 04:29:12;;;;;;;31.10;18.27;;;7.90;99.90;;;;;;5045076;28;20231;-70
2022/04/29 04:31:41;;;;;;;33.77;20.50;;;7.90;99.90;;;;;;5034992;28;20558;-70
2022/04/29 04:36:55;;;;;;;31.67;17.67;;;7.90;99.90;;;;;;5046029;28;20207;-70
2022/04/29 04:39:23;;;;;;;32.37;18.37;;;7.80;99.90;;;;;;5045534;28;20399;-70
2022/04/29 04:41:52;;;;;;;34.53;18.97;;;7.80;99.90;;;;;;5042832;28;20353;-69
2022/04/29 04:44:21;;;;;;;28.40;19.10;;;7.80;99.90;;;;;;5041940;28;20674;-70
2022/04/29 04:46:50;;;;;;;34.67;18.83;;;7.90;99.90;;;;;;5047298;28;20283;-70
2022/04/29 04:49:18;;;;;;;33.40;18.20;;;7.90;99.90;;;;;;5046719;28;20263;-70
2022/04/29 04:51:47;;;;;;;28.80;18.33;;;7.90;99.90;;;;;;5038571;28;20695;-70
2022/04/29 04:54:23;;;;;;;31.00;18.23;;;7.90;99.90;;;;;;5040208;28;20275;-70
2022/04/29 04:56:51;;;;;;;35.47;18.27;;;7.90;99.90;;;;;;5043217;28;20211;-70
2022/04/29 04:59:21;;;;;;;31.13;17.37;;;7.90;99.90;;;;;;5045591;28;20877;-70
2022/04/29 05:01:54;;;;;;;29.53;17.87;;;7.90;99.90;;;;;;5046055;28;20203;-70
2022/04/29 05:04:23;;;;;;;32.47;17.97;;;7.90;99.90;;;;;;5044250;28;20204;-70
2022/04/29 05:06:52;;;;;;;30.03;17.97;;;7.90;99.90;;;;;;5040856;28;20196;-70
2022/04/29 05:09:21;;;;;;;29.53;18.07;;;8.00;99.90;;;;;;5040886;28;20695;-70
2022/04/29 05:11:49;;;;;;;29.77;18.40;;;8.00;99.90;;;;;;5042135;28;20196;-69
2022/04/29 05:14:35;;;;;;;29.60;17.80;;;8.00;99.90;;;;;;5026338;28;20188;-70
2022/04/29 05:17:04;;;;;;;34.13;18.23;;;8.10;99.90;;;;;;5045921;28;20211;-71
2022/04/29 05:19:33;;;;;;;31.43;18.03;;;8.10;99.90;;;;;;5043734;28;20200;-70
2022/04/29 05:22:04;;;;;;;30.37;17.50;;;8.20;99.90;;;;;;5042987;28;20204;-72
2022/04/29 05:24:32;;;;;;;31.63;16.77;;;8.20;99.90;;;;;;5043064;28;20584;-70
2022/04/29 05:27:01;;;;;;;27.17;17.17;;;8.30;99.90;;;;;;5044737;28;20564;-69
2022/04/29 05:29:29;;;;;;;33.43;16.67;;;8.30;99.90;;;;;;5043618;28;20307;-70
2022/04/29 05:31:59;;;;;;;23.20;16.53;;;8.40;99.90;;;;;;5030439;28;20288;-70
2022/04/29 05:34:27;;;;;;;26.93;16.63;;;8.40;99.90;;;;;;5039442;28;20753;-69
2022/04/29 05:36:55;;;;;;;27.90;17.00;;;8.40;99.90;;;;;;5045940;28;20646;-70
2022/04/29 05:42:18;;;;;;;34.03;16.77;;;8.50;99.90;;;;;;5043821;28;20211;-70
2022/04/29 05:44:47;;;;;;;25.47;15.90;;;8.60;99.90;;;;;;5043848;28;20208;-70
2022/04/29 05:47:17;;;;;;;31.20;16.20;;;8.70;99.90;;;;;;5038110;28;20212;-70
2022/04/29 05:49:46;;;;;;;24.70;16.33;;;8.80;99.90;;;;;;5039087;28;20274;-69
2022/04/29 05:52:14;;;;;;;25.27;16.20;;;8.90;99.90;;;;;;5044357;28;20770;-70
2022/04/29 05:54:43;;;;;;;24.00;15.77;;;9.00;99.90;;;;;;5043919;28;20678;-70
2022/04/29 05:57:11;;;;;;;23.50;15.23;;;9.20;99.90;;;;;;5042980;28;20239;-70
2022/04/29 05:59:40;;;;;;;23.33;15.93;;;9.30;99.90;;;;;;5043699;28;20727;-70
2022/04/29 06:02:09;;;;;;;24.70;15.27;;;9.40;99.90;;;;;;5038782;28;20201;-70
2022/04/29 06:04:42;;;;;;;22.37;14.47;;;9.40;99.90;;;;;;5043621;28;20208;-70
2022/04/29 06:07:11;;;;;;;21.43;14.90;;;9.40;99.90;;;;;;5040407;28;20204;-70
2022/04/29 06:09:39;;;;;;;22.30;15.37;;;9.40;99.90;;;;;;5039714;28;20224;-70
2022/04/29 06:12:09;;;;;;;28.90;14.63;;;9.40;99.90;;;;;;5045155;28;20212;-70
2022/04/29 06:14:38;;;;;;;26.77;14.67;;;9.40;99.90;;;;;;5045225;28;20466;-70
2022/04/29 06:17:06;;;;;;;21.80;14.93;;;9.50;99.90;;;;;;5045924;28;20193;-70
2022/04/29 06:19:34;;;;;;;24.23;15.07;;;9.50;99.90;;;;;;5047340;28;20653;-70
2022/04/29 06:22:05;;;;;;;23.83;14.90;;;9.50;99.90;;;;;;5045953;28;20204;-70
2022/04/29 06:24:34;;;;;;;29.17;15.10;;;9.50;99.90;;;;;;5047445;28;20279;-70
2022/04/29 06:27:22;;;;;;;25.80;14.60;;;9.50;99.90;;;;;;5039831;28;20207;-70
2022/04/29 06:29:51;;;;;;;24.97;14.77;;;9.50;99.90;;;;;;5047347;28;20787;-69
2022/04/29 06:32:19;;;;;;;25.50;14.17;;;9.50;99.90;;;;;;5047973;28;20224;-70
2022/04/29 06:34:49;;;;;;;23.27;14.93;;;9.60;99.90;;;;;;5047313;28;20599;-70
2022/04/29 06:37:20;;;;;;;22.07;14.47;;;9.60;99.90;;;;;;5038935;28;20673;-70
2022/04/29 06:39:52;;;;;;;23.70;14.33;;;9.70;99.90;;;;;;5037008;28;20207;-70
2022/04/29 06:42:20;;;;;;;21.77;14.23;;;9.70;99.90;;;;;;5038654;28;20214;-70
2022/04/29 06:44:48;;;;;;;19.70;13.83;;;9.70;99.90;;;;;;5044698;28;20188;-70
2022/04/29 06:47:18;;;;;;;25.07;14.43;;;9.80;99.90;;;;;;5031429;28;20193;-70
2022/04/29 06:49:46;;;;;;;21.07;13.93;;;9.80;99.90;;;;;;5041824;28;20304;-70
2022/04/29 06:52:14;;;;;;;21.77;13.47;;;9.70;99.90;;;;;;5041315;28;20271;-70
2022/04/29 06:54:44;;;;;;;24.67;14.27;;;9.70;99.90;;;;;;5042580;28;20283;-70
2022/04/29 06:57:12;;;;;;;20.93;13.40;;;9.70;99.90;;;;;;5046010;28;20276;-70
2022/04/29 06:59:41;;;;;;;28.50;14.93;;;9.60;99.90;;;;;;5047758;28;20200;-70
2022/04/29 07:02:10;;;;;;;22.60;14.00;;;9.60;99.90;;;;;;5038099;28;20451;-69
2022/04/29 07:04:38;;;;;;;29.23;14.07;;;9.70;99.90;;;;;;5042770;28;20207;-70
2022/04/29 07:07:11;;;;;;;20.83;14.10;;;9.60;99.90;;;;;;5045473;28;20197;-70
2022/04/29 07:09:40;;;;;;;20.43;13.83;;;9.70;99.90;;;;;;5047787;28;20213;-70
2022/04/29 07:12:26;;;;;;;20.47;13.67;;;9.70;99.90;;;;;;5050770;28;20586;-70
2022/04/29 07:14:55;;;;;;;25.43;14.30;;;9.80;99.90;;;;;;5049151;28;20243;-70
2022/04/29 07:17:23;;;;;;;24.97;14.57;;;9.80;99.90;;;;;;5045005;28;20279;-70
2022/04/29 07:19:52;;;;;;;24.10;14.20;;;9.90;99.90;;;;;;5048089;28;20197;-70
2022/04/29 07:22:28;;;;;;;25.30;14.57;;;10.00;99.90;;;;;;5045187;28;20197;-70
2022/04/29 07:24:56;;;;;;;25.43;14.60;;;10.10;99.90;;;;;;5046122;28;20292;-70
2022/04/29 07:27:28;;;;;;;24.10;13.73;;;10.10;99.90;;;;;;5043200;28;20686;-70
2022/04/29 07:29:56;;;;;;;24.97;13.43;;;10.10;99.90;;;;;;5046549;28;20632;-70
2022/04/29 07:32:25;;;;;;;25.53;14.37;;;10.10;99.90;;;;;;5048531;28;20607;-70
2022/04/29 07:43:14;;;;;;;22.73;13.20;;;10.10;99.90;;;;;;5035418;28;20228;-70
2022/04/29 07:45:43;;;;;;;20.23;13.77;;;10.10;99.90;;;;;;5023285;28;20224;-69
2022/04/29 07:48:11;;;;;;;22.53;13.90;;;10.10;99.90;;;;;;5045081;28;20205;-70
2022/04/29 07:50:40;;;;;;;24.17;13.47;;;10.10;99.90;;;;;;5046833;28;20583;-70
2022/04/29 07:53:09;;;;;;;28.23;13.80;;;10.10;99.90;;;;;;5045200;28;20216;-70
2022/04/29 07:55:40;;;;;;;23.67;14.03;;;10.20;99.90;;;;;;5048412;28;20685;-71
2022/04/29 07:58:09;;;;;;;22.53;13.73;;;10.20;99.90;;;;;;5041929;28;20562;-70
2022/04/29 08:00:38;;;;;;;22.33;14.20;;;10.20;99.90;;;;;;5049057;28;20193;-70
2022/04/29 08:03:27;;;;;;;25.07;13.90;;;10.20;99.90;;;;;;5047460;28;20212;-70
2022/04/29 08:05:56;;;;;;;27.07;14.27;;;10.10;99.90;;;;;;5043508;28;20205;-70
2022/04/29 08:08:24;;;;;;;24.67;13.43;;;10.10;99.90;;;;;;5045392;28;20193;-70
2022/04/29 08:10:53;;;;;;;19.43;13.57;;;10.10;99.90;;;;;;5049957;28;20295;-68
2022/04/29 08:13:21;;;;;;;23.07;14.03;;;10.10;99.90;;;;;;5043030;28;20203;-68
2022/04/29 08:15:51;;;;;;;22.43;14.00;;;10.20;99.90;;;;;;5043925;28;20283;-68
2022/04/29 08:18:20;;;;;;;19.43;13.70;;;10.30;99.90;;;;;;5038773;28;20219;-68
2022/04/29 08:20:48;;;;;;;28.80;14.07;;;10.30;99.90;;;;;;5041973;28;20296;-69
2022/04/29 08:23:18;;;;;;;27.33;14.20;;;10.20;99.90;;;;;;5047785;28;20193;-68
2022/04/29 08:25:47;;;;;;;25.17;13.97;;;10.30;99.90;;;;;;5047573;28;21427;-68
2022/04/29 08:28:16;;;;;;;23.83;14.67;;;10.40;99.90;;;;;;5044167;28;20192;-68
2022/04/29 08:30:45;;;;;;;29.87;13.33;;;10.50;99.90;;;;;;5048602;28;20205;-68
2022/04/29 08:33:22;;;;;;;26.87;13.70;;;10.60;99.90;;;;;;5035915;28;20207;-68
2022/04/29 08:35:54;;;;;;;19.70;13.87;;;10.70;99.90;;;;;;5042004;28;20228;-69
2022/04/29 08:38:22;;;;;;;23.33;14.07;;;10.80;99.90;;;;;;5042003;28;20637;-68
2022/04/29 08:40:50;;;;;;;24.20;13.40;;;10.90;99.90;;;;;;5039448;28;20207;-68
2022/04/29 08:43:21;;;;;;;23.53;12.83;;;10.90;99.90;;;;;;5035003;28;20197;-68
2022/04/29 08:45:50;;;;;;;21.77;13.37;;;10.90;99.90;;;;;;5042549;28;20216;-68
2022/04/29 08:48:19;;;;;;;27.60;13.57;;;11.00;99.90;;;;;;5040322;28;20205;-68
2022/04/29 08:50:49;;;;;;;25.73;15.17;;;11.00;99.90;;;;;;5047117;28;20225;-68
2022/04/29 08:53:18;;;;;;;25.53;13.90;;;11.20;99.90;;;;;;5046865;28;20560;-68
2022/04/29 08:58:40;;;;;;;24.63;14.33;;;11.40;99.90;;;;;;5042692;28;20189;-68
2022/04/29 09:01:11;;;;;;;22.47;14.77;;;11.50;99.90;;;;;;5043361;28;20320;-68
2022/04/29 09:03:42;;;;;;;19.77;13.13;;;11.60;99.90;;;;;;5046121;28;20196;-67
2022/04/29 09:06:12;;;;;;;24.07;13.80;;;11.70;99.90;;;;;;5044034;28;20197;-69
2022/04/29 09:08:48;;;;;;;22.33;13.00;;;11.70;99.90;;;;;;5044613;28;20287;-69
2022/04/29 09:11:23;;;;;;;22.57;14.23;;;11.80;99.90;;;;;;5046899;28;20208;-69
2022/04/29 09:13:52;;;;;;;24.40;14.03;;;11.90;99.90;;;;;;5044517;28;20828;-69
2022/04/29 09:16:20;;;;;;;21.97;13.20;;;12.10;99.90;;;;;;5046235;28;20188;-69
2022/04/29 09:18:53;;;;;;;21.97;12.97;;;12.30;99.90;;;;;;5046068;28;20212;-69
2022/04/29 09:21:27;;;;;;;19.67;13.13;;;12.40;99.90;;;;;;5043346;28;20625;-69
2022/04/29 09:23:57;;;;;;;25.00;14.00;;;12.60;99.90;;;;;;5043661;28;20689;-71
2022/04/29 09:26:27;;;;;;;23.13;13.80;;;12.90;99.90;;;;;;5048828;28;20200;-69
2022/04/29 09:29:09;;;;;;;24.40;13.63;;;13.10;99.90;;;;;;5040689;28;20547;-69
2022/04/29 09:31:49;;;;;;;25.17;13.23;;;13.40;99.90;;;;;;5044639;28;20216;-69
2022/04/29 09:34:45;;;;;;;27.13;13.13;;;13.60;99.90;;;;;;5041579;28;20283;-70
2022/04/29 09:37:19;;;;;;;21.17;13.73;;;13.80;99.90;;;;;;5044885;28;20546;-69
2022/04/29 09:39:55;;;;;;;26.07;14.20;;;13.90;99.90;;;;;;5040862;28;20196;-69
2022/04/29 09:42:24;;;;;;;20.73;13.60;;;14.00;99.90;;;;;;5038439;28;20225;-69
2022/04/29 09:44:55;;;;;;;23.23;13.80;;;14.30;99.90;;;;;;5043710;28;20212;-69
2022/04/29 09:47:24;;;;;;;22.63;13.30;;;14.40;99.90;;;;;;5045183;28;20289;-69
2022/04/29 09:49:55;;;;;;;21.07;13.20;;;14.60;99.90;;;;;;5041773;28;20204;-69
2022/04/29 09:52:26;;;;;;;21.77;13.50;;;14.60;99.90;;;;;;5044459;28;20295;-69
2022/04/29 09:54:54;;;;;;;28.53;13.63;;;14.80;99.90;;;;;;5045635;28;20284;-69
2022/04/29 09:57:24;;;;;;;21.27;13.17;;;14.70;99.90;;;;;;5044702;28;20563;-69
2022/04/29 09:59:55;;;;;;;21.47;13.43;;;14.80;99.90;;;;;;5043650;28;20205;-68
2022/04/29 10:02:24;;;;;;;23.30;13.30;;;14.90;99.90;;;;;;5042476;28;20209;-69
2022/04/29 10:04:55;;;;;;;23.63;13.83;;;14.80;99.90;;;;;;5041535;28;20191;-68
2022/04/29 10:07:26;;;;;;;21.70;13.77;;;14.70;99.90;;;;;;5042761;28;20191;-69
2022/04/29 10:09:56;;;;;;;21.87;13.43;;;14.80;99.90;;;;;;5036206;28;20214;-69
2022/04/29 10:12:25;;;;;;;26.23;14.17;;;14.70;99.90;;;;;;5045683;28;20295;-69
2022/04/29 10:14:58;;;;;;;20.33;13.33;;;14.70;99.90;;;;;;5041661;28;20276;-68
2022/04/29 10:23:06;;;;;;;19.90;13.90;;;14.70;99.90;;;;;;5038686;28;20549;-68
2022/04/29 10:25:36;;;;;;;28.23;15.23;;;14.80;99.90;;;;;;5039316;28;20283;-69
2022/04/29 10:28:05;;;;;;;26.27;15.50;;;14.80;99.90;;;;;;5042331;28;20939;-69
2022/04/29 10:30:36;;;;;;;24.83;14.80;;;14.70;99.90;;;;;;5043760;28;20204;-69
2022/04/29 10:33:07;;;;;;;20.77;14.23;;;14.70;99.90;;;;;;5044992;28;20200;-69
2022/04/29 10:35:53;;;;;;;19.57;14.33;;;14.80;99.90;;;;;;5045096;28;20228;-69
2022/04/29 10:38:27;;;;;;;23.67;14.90;;;14.90;99.90;;;;;;5042256;28;20224;-69
2022/04/29 10:41:13;;;;;;;27.93;14.53;;;14.90;99.90;;;;;;5049174;28;20239;-69
2022/04/29 10:43:46;;;;;;;25.87;15.70;;;14.90;99.90;;;;;;5039910;28;20228;-69
2022/04/29 10:46:31;;;;;;;22.07;15.10;;;14.90;99.90;;;;;;5041778;28;20197;-69
2022/04/29 10:49:21;;;;;;;22.13;15.20;;;14.90;99.90;;;;;;5040239;28;20241;-68
2022/04/29 10:51:50;;;;;;;23.93;16.07;;;14.80;99.90;;;;;;5048439;28;20307;-69
2022/04/29 10:54:44;;;;;;;31.90;15.40;;;14.90;99.90;;;;;;5041097;28;20189;-69
2022/04/29 10:57:14;;;;;;;23.27;14.87;;;15.10;99.90;;;;;;5024867;28;20221;-68
2022/04/29 10:59:51;;;;;;;20.20;14.67;;;15.20;99.90;;;;;;5045192;28;20213;-69
2022/04/29 11:02:27;;;;;;;23.63;15.87;;;15.30;99.90;;;;;;5047228;28;20597;-69
2022/04/29 11:04:57;;;;;;;21.60;14.43;;;15.60;99.90;;;;;;5030140;28;20220;-69
2022/04/29 11:07:46;;;;;;;22.90;14.40;;;15.80;99.90;;;;;;5047295;28;20247;-69
2022/04/29 11:10:18;;;;;;;23.20;15.10;;;16.20;99.90;;;;;;5044298;28;20246;-69
2022/04/29 11:12:58;;;;;;;24.47;16.00;;;16.30;99.90;;;;;;5043512;28;20684;-69
2022/04/29 11:15:41;;;;;;;27.67;16.30;;;16.60;99.90;;;;;;5042264;28;20209;-69
2022/04/29 11:18:22;;;;;;;26.03;16.30;;;16.90;99.90;;;;;;5041749;28;20192;-69
2022/04/29 11:20:56;;;;;;;27.07;16.47;;;16.90;99.90;;;;;;5048010;28;20251;-69
2022/04/29 11:26:17;;;;;;;21.33;15.60;;;16.60;99.90;;;;;;5042278;28;20198;-69
2022/04/29 11:28:51;;;;;;;25.67;16.03;;;16.90;99.90;;;;;;5044244;28;20196;-69
2022/04/29 11:31:20;;;;;;;26.80;15.37;;;17.00;99.90;;;;;;5043553;28;20280;-69
2022/04/29 11:33:48;;;;;;;26.10;16.20;;;17.20;99.90;;;;;;5045530;28;20278;-69
2022/04/29 11:36:17;;;;;;;24.53;15.83;;;17.30;99.90;;;;;;5044631;28;20680;-69
2022/04/29 11:38:47;;;;;;;23.43;15.30;;;17.50;99.90;;;;;;5062591;28;20205;-69
2022/04/29 11:41:18;;;;;;;22.90;15.53;;;17.60;99.90;;;;;;5046125;28;20196;-70
2022/04/29 11:43:48;;;;;;;27.73;16.90;;;17.60;99.90;;;;;;5042974;28;20694;-69
2022/04/29 11:46:16;;;;;;;24.83;16.37;;;17.80;99.90;;;;;;5044854;28;20280;-68
2022/04/29 11:48:52;;;;;;;22.97;16.00;;;18.10;99.90;;;;;;5044576;28;20190;-68
2022/04/29 11:51:21;;;;;;;26.17;15.53;;;18.40;99.90;;;;;;5045495;28;20224;-69
2022/04/29 11:53:56;;;;;;;24.57;15.57;;;18.50;99.90;;;;;;5044108;28;20262;-69
2022/04/29 11:56:34;;;;;;;21.00;14.53;;;18.40;99.90;;;;;;5043618;28;20516;-69
2022/04/29 11:59:05;;;;;;;24.57;15.53;;;18.40;99.90;;;;;;5045802;28;20246;-68
2022/04/29 12:01:33;;;;;;;24.60;15.73;;;18.50;99.90;;;;;;5045240;28;20552;-69
2022/04/29 12:04:02;;;;;;;23.43;15.97;;;18.40;99.90;;;;;;5050529;28;20266;-71
2022/04/29 12:06:31;;;;;;;25.43;16.23;;;18.40;99.90;;;;;;5046815;28;20205;-68
2022/04/29 12:09:00;;;;;;;28.37;15.33;;;18.50;99.90;;;;;;5044595;28;21025;-69
2022/04/29 12:11:30;;;;;;;24.83;15.63;;;18.30;99.90;;;;;;5045388;28;20202;-69
2022/04/29 12:14:15;;;;;;;23.93;15.70;;;18.40;99.90;;;;;;5041131;28;20197;-69
2022/04/29 12:16:45;;;;;;;22.93;15.40;;;18.30;99.90;;;;;;5044579;28;20200;-71
2022/04/29 12:19:17;;;;;;;26.43;15.73;;;18.30;99.90;;;;;;5048286;28;20887;-69
2022/04/29 12:21:55;;;;;;;21.53;15.40;;;18.00;99.90;;;;;;5052458;28;20224;-68
2022/04/29 12:24:23;;;;;;;22.73;15.63;;;17.90;99.90;;;;;;5039871;28;20188;-68
2022/04/29 12:27:06;;;;;;;24.10;16.60;;;18.10;99.90;;;;;;5047921;28;20370;-69
2022/04/29 12:29:39;;;;;;;25.43;15.77;;;18.20;99.90;;;;;;5048652;28;20196;-68
2022/04/29 12:35:15;;;;;;;27.20;15.10;;;18.50;99.90;;;;;;5045763;28;20794;-68
2022/04/29 12:37:51;;;;;;;23.57;15.50;;;18.50;99.90;;;;;;5040904;28;20746;-68
2022/04/29 12:40:40;;;;;;;24.10;15.00;;;18.40;99.90;;;;;;5041618;28;20208;-69
2022/04/29 12:43:13;;;;;;;22.70;15.80;;;18.50;99.90;;;;;;5045281;28;20193;-68
2022/04/29 12:45:43;;;;;;;22.40;15.80;;;18.40;99.90;;;;;;5042344;28;20244;-68
2022/04/29 12:48:14;;;;;;;25.77;15.93;;;18.20;99.90;;;;;;5041726;28;20566;-69
2022/04/29 12:50:44;;;;;;;25.23;16.00;;;18.10;99.90;;;;;;5048375;28;20203;-68
2022/04/29 12:53:13;;;;;;;24.50;16.10;;;18.10;99.90;;;;;;5044046;28;20697;-68
2022/04/29 12:55:50;;;;;;;27.20;15.43;;;18.40;99.90;;;;;;5044006;28;20230;-68
2022/04/29 12:58:21;;;;;;;26.80;15.97;;;18.30;99.90;;;;;;5043907;28;20193;-68
2022/04/29 13:01:03;;;;;;;26.07;16.10;;;18.30;99.90;;;;;;5046286;28;20903;-68
2022/04/29 13:03:34;;;;;;;31.17;16.77;;;18.40;99.90;;;;;;5045550;28;20197;-68
2022/04/29 13:06:04;;;;;;;25.63;16.33;;;18.60;99.90;;;;;;5047761;28;20197;-68
2022/04/29 13:08:32;;;;;;;30.17;16.40;;;18.80;99.90;;;;;;5047504;28;20239;-68
2022/04/29 13:11:03;;;;;;;26.00;16.33;;;18.90;99.90;;;;;;5048037;28;20201;-68
2022/04/29 13:13:32;;;;;;;30.20;16.70;;;19.00;99.90;;;;;;5031332;28;20224;-69
2022/04/29 13:16:01;;;;;;;26.13;16.30;;;19.20;99.90;;;;;;5045352;28;20561;-68
2022/04/29 13:18:30;;;;;;;24.13;16.03;;;18.90;99.90;;;;;;5046081;28;20641;-68
2022/04/29 13:21:00;;;;;;;24.47;16.00;;;19.00;99.90;;;;;;5037158;28;20205;-68
2022/04/29 13:23:28;;;;;;;25.70;16.87;;;19.30;99.90;;;;;;5040091;28;20220;-68
2022/04/29 13:25:57;;;;;;;23.57;17.07;;;19.50;99.90;;;;;;5042863;28;20300;-68